Boca de la Travesia, Argentina
Current Conditions -  °F | °C
As of 10:00 PM on Wednesday 17 Dec 2014 (Local Time) from SAZN Reporting Station
Clear Clear  
Wind Chill: 66°   Ceiling: Unl
Heat Index: 66°   Visibility: 6mi
Dew Point: 52°   Wind: 3mph
Humidity: 60%   Direction: 270°W
Pressure: 29.88"   Gusts: NA
Location:  40.32°S, 63.87°W
Report Text: SAZN 180100Z 27003KT CAVOK 19/11 Q1012
Loading
Personal Weather Stations






























Interactive Weather Map New forecast layout! Learn more

10-Day Weather Forecast

Advertisements
Track Severe Weather on mobile